createdAt,value
2018-07-14T00:01:26.981Z,12.90
2018-07-14T00:03:55.757Z,12.67
2018-07-14T00:06:23.711Z,11.70
2018-07-14T00:08:51.542Z,12.50
2018-07-14T00:11:19.925Z,12.30
2018-07-14T00:13:47.853Z,13.40
2018-07-14T00:16:15.989Z,13.23
2018-07-14T00:18:43.801Z,13.80
2018-07-14T00:21:11.487Z,12.93
2018-07-14T00:23:40.013Z,13.37
2018-07-14T00:26:08.448Z,13.23
2018-07-14T00:28:36.542Z,12.87
2018-07-14T00:31:04.433Z,13.20
2018-07-14T00:33:32.249Z,12.97
2018-07-14T00:35:59.961Z,12.50
2018-07-14T00:38:28.915Z,12.93
2018-07-14T00:40:56.703Z,12.97
2018-07-14T00:43:24.506Z,12.13
2018-07-14T00:45:52.393Z,12.40
2018-07-14T00:48:20.281Z,11.87
2018-07-14T00:50:48.156Z,12.83
2018-07-14T00:53:16.536Z,11.87
2018-07-14T00:55:44.434Z,12.13
2018-07-14T00:58:12.267Z,13.17
2018-07-14T01:00:40.078Z,12.33
2018-07-14T01:03:07.966Z,13.60
2018-07-14T01:05:35.917Z,12.50
2018-07-14T01:08:03.770Z,12.90
2018-07-14T01:10:31.492Z,13.07
2018-07-14T01:12:59.208Z,13.07
2018-07-14T01:15:27.016Z,14.33
2018-07-14T01:17:54.756Z,13.27
2018-07-14T01:20:22.473Z,14.10
2018-07-14T01:22:50.189Z,13.03
2018-07-14T01:25:18.034Z,14.33
2018-07-14T01:27:46.425Z,13.40
2018-07-14T01:30:14.325Z,13.93
2018-07-14T01:32:42.054Z,14.27
2018-07-14T01:35:09.755Z,13.40
2018-07-14T01:37:37.556Z,13.50
2018-07-14T01:40:05.268Z,13.40
2018-07-14T01:42:33.042Z,12.83
2018-07-14T01:45:00.740Z,13.03
2018-07-14T01:47:29.080Z,13.57
2018-07-14T01:49:57.480Z,13.73
2018-07-14T01:52:25.305Z,13.70
2018-07-14T01:54:52.996Z,13.97
2018-07-14T01:57:20.766Z,15.03
2018-07-14T01:59:49.557Z,14.70
2018-07-14T02:02:17.404Z,15.67
2018-07-14T02:04:45.304Z,14.40
2018-07-14T02:07:13.198Z,15.20
2018-07-14T02:09:40.895Z,14.83
2018-07-14T02:12:09.025Z,14.50
2018-07-14T02:14:37.064Z,14.30
2018-07-14T02:17:05.443Z,14.70
2018-07-14T02:19:33.844Z,14.33
2018-07-14T02:22:01.578Z,14.20
2018-07-14T02:24:29.286Z,14.90
2018-07-14T02:26:57.081Z,13.97
2018-07-14T02:29:24.813Z,15.33
2018-07-14T02:31:52.723Z,14.00
2018-07-14T02:34:21.041Z,16.10
2018-07-14T02:36:49.606Z,14.30
2018-07-14T02:39:17.335Z,15.00
2018-07-14T02:41:45.061Z,13.90
2018-07-14T02:44:13.465Z,15.20
2018-07-14T02:46:41.137Z,14.20
2018-07-14T02:49:10.336Z,14.17
2018-07-14T02:51:38.009Z,14.43
2018-07-14T02:54:06.251Z,15.17
2018-07-14T02:56:33.957Z,14.90
2018-07-14T02:59:01.804Z,15.87
2018-07-14T03:01:29.613Z,15.00
2018-07-14T03:03:57.506Z,14.13
2018-07-14T03:06:25.206Z,15.33
2018-07-14T03:08:53.692Z,15.47
2018-07-14T03:11:21.614Z,16.13
2018-07-14T03:13:49.542Z,14.17
2018-07-14T03:16:17.141Z,14.10
2018-07-14T03:18:44.913Z,14.23
2018-07-14T03:21:12.822Z,15.50
2018-07-14T03:23:41.262Z,13.60
2018-07-14T03:26:09.251Z,14.63
2018-07-14T03:28:37.445Z,14.80
2018-07-14T03:31:05.221Z,14.40
2018-07-14T03:33:33.872Z,14.27
2018-07-14T03:36:02.991Z,14.53
2018-07-14T03:38:30.741Z,14.93
2018-07-14T03:40:58.619Z,15.10
2018-07-14T03:43:26.537Z,15.17
2018-07-14T03:45:54.746Z,14.50
2018-07-14T03:48:22.563Z,13.73
2018-07-14T03:50:50.333Z,14.73
2018-07-14T03:53:18.109Z,14.83
2018-07-14T03:55:46.098Z,13.83
2018-07-14T03:58:13.821Z,14.70
2018-07-14T04:00:41.520Z,14.23
2018-07-14T04:03:09.323Z,14.07
2018-07-14T04:05:37.210Z,16.27
2018-07-14T04:08:05.050Z,15.20
2018-07-14T04:10:32.964Z,15.47
2018-07-14T04:13:00.797Z,16.90
2018-07-14T04:15:28.629Z,16.50
2018-07-14T04:18:05.282Z,16.27
2018-07-14T04:20:34.986Z,16.13
2018-07-14T04:23:02.988Z,17.20
2018-07-14T04:25:32.213Z,15.87
2018-07-14T04:28:01.264Z,15.00
2018-07-14T04:30:29.086Z,15.47
2018-07-14T04:32:57.389Z,14.77
2018-07-14T04:35:25.631Z,14.97
2018-07-14T04:37:53.489Z,14.63
2018-07-14T04:40:21.333Z,16.17
2018-07-14T04:42:50.021Z,16.23
2018-07-14T04:45:19.005Z,15.63
2018-07-14T04:47:46.904Z,14.77
2018-07-14T04:50:14.703Z,14.30
2018-07-14T04:52:42.400Z,14.43
2018-07-14T04:55:10.223Z,14.47
2018-07-14T04:57:37.954Z,15.00
2018-07-14T05:00:06.010Z,14.60
2018-07-14T05:02:33.726Z,14.50
2018-07-14T05:05:01.497Z,13.43
2018-07-14T05:07:29.326Z,12.27
2018-07-14T05:09:56.872Z,11.77
2018-07-14T05:12:24.657Z,12.03
2018-07-14T05:14:52.517Z,11.87
2018-07-14T05:17:20.213Z,11.43
2018-07-14T05:19:48.227Z,12.50
2018-07-14T05:22:16.087Z,12.57
2018-07-14T05:24:43.973Z,12.90
2018-07-14T05:27:12.248Z,12.13
2018-07-14T05:29:39.979Z,11.93
2018-07-14T05:32:07.803Z,12.40
2018-07-14T05:34:36.014Z,13.00
2018-07-14T05:37:03.841Z,13.07
2018-07-14T05:39:31.669Z,13.37
2018-07-14T05:41:59.621Z,13.90
2018-07-14T05:44:27.444Z,13.30
2018-07-14T05:46:55.290Z,12.97
2018-07-14T05:49:23.044Z,13.50
2018-07-14T05:51:50.781Z,13.20
2018-07-14T05:54:18.486Z,12.70
2018-07-14T05:56:46.169Z,12.60
2018-07-14T05:59:14.124Z,12.23
2018-07-14T06:01:42.029Z,11.93
2018-07-14T06:04:10.205Z,12.20
2018-07-14T06:06:38.468Z,11.40
2018-07-14T06:09:07.465Z,11.47
2018-07-14T06:11:35.949Z,13.17
2018-07-14T06:14:05.997Z,12.40
2018-07-14T06:16:33.889Z,12.90
2018-07-14T06:19:01.489Z,12.10
2018-07-14T06:21:29.947Z,11.40
2018-07-14T06:23:57.609Z,11.33
2018-07-14T06:26:25.463Z,10.70
2018-07-14T06:28:53.192Z,11.13
2018-07-14T06:31:21.132Z,10.70
2018-07-14T06:33:49.058Z,12.20
2018-07-14T06:36:17.017Z,11.43
2018-07-14T06:38:44.887Z,10.93
2018-07-14T06:41:12.712Z,10.50
2018-07-14T06:43:40.602Z,11.03
2018-07-14T06:46:08.749Z,10.10
2018-07-14T06:48:36.469Z,10.13
2018-07-14T06:51:05.061Z,10.50
2018-07-14T06:53:32.761Z,10.13
2018-07-14T06:56:00.633Z,9.53
2018-07-14T06:58:29.329Z,8.77
2018-07-14T07:00:57.061Z,9.10
2018-07-14T07:03:25.288Z,9.27
2018-07-14T07:05:53.033Z,9.10
2018-07-14T07:08:20.961Z,8.90
2018-07-14T07:10:48.648Z,9.40
2018-07-14T07:13:16.442Z,8.90
2018-07-14T07:15:44.226Z,9.23
2018-07-14T07:18:12.197Z,9.23
2018-07-14T07:20:40.169Z,9.33
2018-07-14T07:23:07.976Z,9.00
2018-07-14T07:25:35.897Z,9.73
2018-07-14T07:28:04.340Z,9.27
2018-07-14T07:30:31.922Z,8.97
2018-07-14T07:32:59.863Z,9.10
2018-07-14T07:35:27.768Z,8.83
2018-07-14T07:37:56.285Z,7.70
2018-07-14T07:40:25.517Z,8.50
2018-07-14T07:42:53.620Z,9.20
2018-07-14T07:45:21.648Z,8.90
2018-07-14T07:47:49.593Z,10.03
2018-07-14T07:50:17.381Z,9.83
2018-07-14T07:52:46.386Z,9.43
2018-07-14T07:55:15.424Z,10.23
2018-07-14T07:57:43.244Z,10.43
2018-07-14T08:00:11.248Z,9.93
2018-07-14T08:02:38.833Z,9.80
2018-07-14T08:05:07.557Z,9.13
2018-07-14T08:07:36.031Z,9.90
2018-07-14T08:10:04.517Z,10.33
2018-07-14T08:12:32.652Z,10.10
2018-07-14T08:15:00.955Z,10.60
2018-07-14T08:17:28.639Z,11.50
2018-07-14T08:19:56.440Z,10.10
2018-07-14T08:22:25.205Z,10.40
2018-07-14T08:24:53.918Z,9.10
2018-07-14T08:27:21.707Z,9.67
2018-07-14T08:29:49.665Z,9.40
2018-07-14T08:32:17.498Z,10.00
2018-07-14T08:34:45.245Z,8.90
2018-07-14T08:37:13.226Z,8.47
2018-07-14T08:39:40.957Z,8.20
2018-07-14T08:42:08.910Z,9.10
2018-07-14T08:44:36.951Z,8.10
2018-07-14T08:47:05.173Z,7.70
2018-07-14T08:49:33.005Z,7.10
2018-07-14T08:52:01.596Z,7.20
2018-07-14T08:54:29.548Z,7.07
2018-07-14T08:56:57.939Z,7.80
2018-07-14T08:59:25.746Z,6.70
2018-07-14T09:01:53.648Z,5.70
2018-07-14T09:04:22.194Z,5.90
2018-07-14T09:06:50.503Z,5.13
2018-07-14T09:09:19.173Z,5.13
2018-07-14T09:11:47.081Z,4.93
2018-07-14T09:14:14.744Z,5.50
2018-07-14T09:16:42.569Z,5.13
2018-07-14T09:19:10.362Z,5.00
2018-07-14T09:21:38.201Z,4.57
2018-07-14T09:24:05.986Z,5.27
2018-07-14T09:26:33.913Z,5.23
2018-07-14T09:29:01.746Z,5.40
2018-07-14T09:31:34.645Z,5.53
2018-07-14T09:34:02.368Z,4.80
2018-07-14T09:36:30.662Z,5.60
2018-07-14T09:38:58.285Z,4.90
2018-07-14T09:41:25.925Z,5.33
2018-07-14T09:43:53.727Z,4.70
2018-07-14T09:46:21.433Z,5.23
2018-07-14T09:48:49.930Z,5.60
2018-07-14T09:51:18.470Z,4.90
2018-07-14T09:53:46.335Z,5.17
2018-07-14T09:56:14.179Z,5.20
2018-07-14T09:58:42.110Z,5.43
2018-07-14T10:01:10.730Z,5.73
2018-07-14T10:03:39.730Z,5.57
2018-07-14T10:19:14.136Z,5.53
2018-07-14T10:21:41.960Z,5.10
2018-07-14T10:24:10.752Z,5.53
2018-07-14T10:26:38.544Z,5.33
2018-07-14T10:29:06.437Z,5.00
2018-07-14T10:31:34.130Z,5.33
2018-07-14T10:34:01.943Z,5.93
2018-07-14T10:36:29.547Z,5.20
2018-07-14T10:38:57.541Z,5.97
2018-07-14T10:41:25.252Z,4.90
2018-07-14T10:43:53.119Z,5.53
2018-07-14T10:46:20.916Z,5.63
2018-07-14T10:48:48.707Z,5.20
2018-07-14T10:51:16.345Z,6.33
2018-07-14T10:53:44.066Z,6.17
2018-07-14T10:56:12.005Z,5.73
2018-07-14T10:58:40.386Z,6.23
2018-07-14T11:01:08.170Z,6.70
2018-07-14T11:03:35.917Z,7.30
2018-07-14T11:06:03.700Z,6.50
2018-07-14T11:08:31.447Z,6.20
2018-07-14T11:10:59.351Z,5.70
2018-07-14T11:13:27.174Z,5.73
2018-07-14T11:15:55.075Z,7.30
2018-07-14T11:18:22.809Z,7.30
2018-07-14T11:20:52.713Z,6.60
2018-07-14T11:23:20.436Z,7.70
2018-07-14T11:25:48.498Z,7.87
2018-07-14T11:28:16.580Z,6.47
2018-07-14T11:30:44.323Z,6.90
2018-07-14T11:33:12.330Z,7.30
2018-07-14T11:35:40.318Z,6.87
2018-07-14T11:38:08.484Z,5.90
2018-07-14T11:40:36.325Z,5.67
2018-07-14T11:43:04.778Z,6.03
2018-07-14T11:45:32.523Z,5.53
2018-07-14T11:48:00.436Z,5.00
2018-07-14T11:50:28.088Z,4.90
2018-07-14T11:52:55.820Z,5.07
2018-07-14T11:55:23.612Z,5.40
2018-07-14T11:57:51.468Z,4.37
2018-07-14T12:00:20.319Z,4.23
2018-07-14T12:02:48.406Z,4.33
2018-07-14T12:05:16.204Z,4.63
2018-07-14T12:07:44.782Z,3.57
2018-07-14T12:10:12.838Z,3.20
2018-07-14T12:12:40.699Z,4.30
2018-07-14T12:15:08.656Z,4.07
2018-07-14T12:17:36.570Z,3.70
2018-07-14T12:20:04.462Z,4.57
2018-07-14T12:22:32.295Z,4.20
2018-07-14T12:25:00.072Z,3.63
2018-07-14T12:27:27.967Z,5.13
2018-07-14T12:29:56.087Z,10.77
2018-07-14T12:32:23.789Z,7.90
2018-07-14T12:34:51.661Z,4.00
2018-07-14T12:37:19.412Z,3.30
2018-07-14T12:39:47.686Z,3.70
2018-07-14T12:42:16.130Z,4.00
2018-07-14T12:44:43.822Z,3.00
2018-07-14T12:47:11.566Z,2.97
2018-07-14T12:49:39.921Z,3.47
2018-07-14T12:52:07.749Z,3.47
2018-07-14T12:54:35.408Z,4.30
2018-07-14T12:57:03.134Z,3.70
2018-07-14T12:59:31.020Z,3.87
2018-07-14T13:01:58.873Z,3.40
2018-07-14T13:04:26.556Z,3.47
2018-07-14T13:06:54.921Z,3.57
2018-07-14T13:09:22.752Z,3.43
2018-07-14T13:11:50.486Z,3.80
2018-07-14T13:14:18.240Z,3.27
2018-07-14T13:16:46.003Z,3.10
2018-07-14T13:19:13.766Z,3.10
2018-07-14T13:21:41.504Z,3.10
2018-07-14T13:24:09.500Z,3.17
2018-07-14T13:26:37.441Z,3.50
2018-07-14T13:29:05.398Z,3.33
2018-07-14T13:31:34.088Z,3.43
2018-07-14T13:34:02.442Z,3.40
2018-07-14T13:36:30.576Z,3.40
2018-07-14T13:38:58.441Z,4.07
2018-07-14T13:41:26.364Z,3.43
2018-07-14T13:43:54.661Z,3.93
2018-07-14T13:46:22.613Z,3.90
2018-07-14T13:48:50.330Z,3.47
2018-07-14T13:51:18.168Z,4.10
2018-07-14T13:53:46.089Z,4.60
2018-07-14T13:56:13.900Z,4.20
2018-07-14T13:58:42.269Z,4.20
2018-07-14T14:01:10.142Z,3.67
2018-07-14T14:03:37.974Z,4.13
2018-07-14T14:06:05.929Z,3.60
2018-07-14T14:08:34.250Z,4.77
2018-07-14T14:11:02.917Z,3.80
2018-07-14T14:13:31.189Z,3.60
2018-07-14T14:15:59.133Z,3.70
2018-07-14T14:18:26.842Z,3.43
2018-07-14T14:20:54.774Z,3.50
2018-07-14T14:23:23.318Z,3.67
2018-07-14T14:25:51.194Z,3.60
2018-07-14T14:28:19.094Z,3.53
2018-07-14T14:30:47.226Z,3.40
2018-07-14T14:33:15.145Z,3.60
2018-07-14T14:35:42.835Z,3.40
2018-07-14T14:38:10.694Z,3.50
2018-07-14T14:40:38.273Z,3.70
2018-07-14T14:43:06.385Z,3.50
2018-07-14T14:45:34.171Z,3.40
2018-07-14T14:48:01.947Z,3.90
2018-07-14T14:50:29.776Z,4.20
2018-07-14T14:52:57.532Z,3.50
2018-07-14T14:55:25.429Z,3.67
2018-07-14T14:57:53.358Z,3.53
2018-07-14T15:00:20.917Z,3.73
2018-07-14T15:02:48.520Z,3.60
2018-07-14T15:05:16.501Z,4.20
2018-07-14T15:07:44.308Z,3.47
2018-07-14T15:10:12.012Z,3.97
2018-07-14T15:12:40.088Z,3.53
2018-07-14T15:15:07.965Z,3.70
2018-07-14T15:17:35.841Z,4.07
2018-07-14T15:20:04.630Z,4.70
2018-07-14T15:22:33.190Z,4.20
2018-07-14T15:25:01.634Z,4.30
2018-07-14T15:27:30.101Z,4.00
2018-07-14T15:29:58.476Z,4.57
2018-07-14T15:32:26.361Z,4.07
2018-07-14T15:34:54.107Z,3.90
2018-07-14T15:37:21.849Z,3.90
2018-07-14T15:39:49.955Z,4.33
2018-07-14T15:42:17.849Z,4.53
2018-07-14T15:44:45.824Z,4.13
2018-07-14T15:47:13.925Z,4.20
2018-07-14T15:49:41.913Z,4.90
2018-07-14T15:52:09.669Z,4.57
2018-07-14T15:54:37.695Z,4.20
2018-07-14T15:57:05.560Z,4.63
2018-07-14T15:59:34.184Z,4.43
2018-07-14T16:02:03.105Z,4.67
2018-07-14T16:04:30.806Z,4.80
2018-07-14T16:06:58.802Z,4.73
2018-07-14T16:09:26.569Z,5.00
2018-07-14T16:11:54.390Z,4.40
2018-07-14T16:14:22.092Z,4.73
2018-07-14T16:16:49.867Z,4.63
2018-07-14T16:19:17.945Z,4.53
2018-07-14T16:21:45.621Z,4.60
2018-07-14T16:24:13.492Z,4.73
2018-07-14T16:26:41.273Z,5.00
2018-07-14T16:29:09.149Z,5.00
2018-07-14T16:31:36.829Z,4.53
2018-07-14T16:34:04.764Z,5.20
2018-07-14T16:36:32.624Z,4.97
2018-07-14T16:39:00.512Z,4.67
2018-07-14T16:41:28.452Z,5.03
2018-07-14T16:43:56.243Z,4.97
2018-07-14T16:46:24.063Z,5.13
2018-07-14T16:48:51.932Z,5.33
2018-07-14T16:51:19.720Z,4.80
2018-07-14T16:53:47.617Z,5.17
2018-07-14T16:56:15.636Z,5.57
2018-07-14T16:58:44.012Z,6.67
2018-07-14T17:01:11.872Z,5.60
2018-07-14T17:03:39.812Z,5.77
2018-07-14T17:06:08.382Z,5.33
2018-07-14T17:08:36.253Z,5.20
2018-07-14T17:11:04.125Z,5.33
2018-07-14T17:13:34.057Z,4.83
2018-07-14T17:16:01.970Z,4.87
2018-07-14T17:18:30.022Z,5.70
2018-07-14T17:20:58.221Z,4.90
2018-07-14T17:23:26.196Z,5.37
2018-07-14T17:25:54.572Z,5.67
2018-07-14T17:28:22.504Z,5.47
2018-07-14T17:30:50.461Z,5.80
2018-07-14T17:33:18.403Z,5.33
2018-07-14T17:35:46.288Z,5.70
2018-07-14T17:38:14.963Z,5.57
2018-07-14T17:40:43.452Z,5.60
2018-07-14T17:43:11.263Z,5.27
2018-07-14T17:45:39.166Z,5.43
2018-07-14T17:48:07.506Z,5.70
2018-07-14T17:50:35.289Z,5.43
2018-07-14T17:53:03.402Z,5.73
2018-07-14T17:55:31.189Z,5.90
2018-07-14T17:57:59.090Z,6.17
2018-07-14T18:00:27.332Z,5.80
2018-07-14T18:02:55.117Z,7.80
2018-07-14T18:05:23.178Z,7.80
2018-07-14T18:07:51.064Z,7.60
2018-07-14T18:10:18.889Z,8.60
2018-07-14T18:12:46.949Z,8.50
2018-07-14T18:15:15.590Z,7.30
2018-07-14T18:17:43.597Z,6.63
2018-07-14T18:20:11.726Z,7.87
2018-07-14T18:22:39.552Z,8.67
2018-07-14T18:25:07.444Z,11.23
2018-07-14T18:27:35.357Z,8.60
2018-07-14T18:30:03.975Z,7.57
2018-07-14T18:32:31.779Z,7.40
2018-07-14T18:34:59.671Z,6.77
2018-07-14T18:37:27.429Z,6.73
2018-07-14T18:39:55.744Z,7.00
2018-07-14T18:42:23.565Z,6.93
2018-07-14T18:44:51.346Z,7.50
2018-07-14T18:47:19.194Z,7.30
2018-07-14T18:49:47.020Z,7.30
2018-07-14T18:52:14.938Z,7.20
2018-07-14T18:54:42.722Z,8.37
2018-07-14T18:57:10.608Z,6.90
2018-07-14T18:59:38.461Z,7.30
2018-07-14T19:02:06.528Z,7.10
2018-07-14T19:04:34.337Z,7.50
2018-07-14T19:07:02.173Z,7.40
2018-07-14T19:09:30.160Z,7.20
2018-07-14T19:11:58.050Z,7.10
2018-07-14T19:14:25.813Z,8.10
2018-07-14T19:16:53.674Z,7.23
2018-07-14T19:19:21.604Z,7.70
2018-07-14T19:21:50.189Z,9.03
2018-07-14T19:24:18.209Z,9.50
2018-07-14T19:26:45.868Z,9.40
2018-07-14T19:29:13.778Z,8.63
2018-07-14T19:31:41.732Z,9.80
2018-07-14T19:34:09.691Z,9.20
2018-07-14T19:36:38.956Z,8.97
2018-07-14T19:39:07.339Z,8.30
2018-07-14T19:41:35.189Z,8.13
2018-07-14T19:44:03.071Z,9.00
2018-07-14T19:46:31.092Z,8.60
2018-07-14T19:48:59.432Z,8.70
2018-07-14T19:51:27.152Z,7.90
2018-07-14T19:53:55.164Z,8.50
2018-07-14T19:56:23.065Z,8.30
2018-07-14T19:58:53.974Z,9.33
2018-07-14T20:01:21.857Z,9.97
2018-07-14T20:03:49.762Z,10.17
2018-07-14T20:06:17.485Z,11.10
2018-07-14T20:08:45.248Z,9.50
2018-07-14T20:11:13.213Z,10.27
2018-07-14T20:13:41.196Z,10.10
2018-07-14T20:16:09.857Z,10.20
2018-07-14T20:18:38.538Z,9.07
2018-07-14T20:21:06.613Z,9.20
2018-07-14T20:23:34.818Z,9.27
2018-07-14T20:26:02.798Z,11.20
2018-07-14T20:28:30.721Z,11.40
2018-07-14T20:30:58.567Z,11.83
2018-07-14T20:33:26.454Z,11.60
2018-07-14T20:35:54.339Z,11.30
2018-07-14T20:38:22.168Z,11.60
2018-07-14T20:40:50.201Z,11.87
2018-07-14T20:43:18.081Z,11.70
2018-07-14T20:45:46.093Z,11.90
2018-07-14T20:48:14.029Z,13.10
2018-07-14T20:50:41.896Z,13.77
2018-07-14T20:53:10.808Z,12.60
2018-07-14T20:55:38.666Z,12.37
2018-07-14T20:58:06.754Z,12.30
2018-07-14T21:00:34.725Z,12.30
2018-07-14T21:03:02.733Z,12.00
2018-07-14T21:05:30.593Z,12.00
2018-07-14T21:07:58.431Z,12.87
2018-07-14T21:10:26.244Z,11.97
2018-07-14T21:12:54.074Z,12.47
2018-07-14T21:15:21.985Z,13.07
2018-07-14T21:17:49.830Z,12.40
2018-07-14T21:20:17.713Z,11.57
2018-07-14T21:22:45.778Z,13.00
2018-07-14T21:25:13.656Z,11.90
2018-07-14T21:27:41.564Z,11.43
2018-07-14T21:30:09.590Z,12.90
2018-07-14T21:32:37.479Z,12.10
2018-07-14T21:35:06.928Z,12.37
2018-07-14T21:37:34.575Z,13.63
2018-07-14T21:40:03.583Z,17.97
2018-07-14T21:42:31.305Z,12.50
2018-07-14T21:44:59.083Z,13.37
2018-07-14T21:47:26.929Z,13.80
2018-07-14T21:49:54.832Z,15.30
2018-07-14T21:52:23.009Z,15.00
2018-07-14T21:54:52.293Z,14.60
2018-07-14T21:57:20.831Z,13.00
2018-07-14T21:59:48.546Z,14.30
2018-07-14T22:02:17.386Z,13.67
2018-07-14T22:04:45.105Z,13.90
2018-07-14T22:07:16.100Z,14.77
2018-07-14T22:09:43.817Z,14.43
2018-07-14T22:12:12.487Z,14.50
2018-07-14T22:14:40.973Z,20.07
2018-07-14T22:17:08.805Z,14.57
2018-07-14T22:19:36.644Z,15.57
2018-07-14T22:22:04.537Z,14.23
2018-07-14T22:24:32.511Z,15.73
2018-07-14T22:27:00.365Z,15.10
2018-07-14T22:29:28.326Z,14.33
2018-07-14T22:31:58.185Z,12.70
2018-07-14T22:34:25.994Z,13.63
2018-07-14T22:36:53.727Z,13.80
2018-07-14T22:39:21.709Z,13.40
2018-07-14T22:41:50.617Z,13.97
2018-07-14T22:44:19.181Z,14.13
2018-07-14T22:46:47.037Z,14.93
2018-07-14T22:49:14.821Z,15.60
2018-07-14T22:51:42.506Z,13.83
2018-07-14T22:54:10.161Z,14.00
2018-07-14T22:56:37.813Z,13.60
2018-07-14T22:59:06.274Z,12.60
2018-07-14T23:01:33.981Z,12.03
2018-07-14T23:04:02.968Z,12.10
2018-07-14T23:06:31.418Z,14.23
2018-07-14T23:08:59.638Z,15.87
2018-07-14T23:11:27.360Z,14.37
2018-07-14T23:13:55.616Z,14.07
2018-07-14T23:16:23.462Z,15.27
2018-07-14T23:18:52.007Z,14.83
2018-07-14T23:21:20.117Z,15.03
2018-07-14T23:23:47.797Z,14.27
2018-07-14T23:26:15.609Z,14.80
2018-07-14T23:28:44.046Z,15.37
2018-07-14T23:31:11.818Z,15.80
2018-07-14T23:33:39.706Z,16.00
2018-07-14T23:36:07.945Z,15.43
2018-07-14T23:38:36.027Z,16.13
2018-07-14T23:41:03.749Z,15.67
2018-07-14T23:43:32.649Z,14.60
2018-07-14T23:46:00.493Z,14.23
2018-07-14T23:48:28.316Z,14.00
2018-07-14T23:50:56.137Z,14.77
2018-07-14T23:53:24.185Z,14.53
2018-07-14T23:55:52.492Z,14.47
2018-07-14T23:58:21.236Z,15.00
